La Mesilla, New Mexico
Current Conditions -  °F | °C
As of 7:55 AM on Sunday 21 Dec 2014 (Local Time) from KLAM Reporting Station
Clear Clear  
Wind Chill: 28°   Ceiling: Unl
Heat Index: 28°   Visibility: 10mi
Dew Point: 24°   Wind: 0mph
Humidity: 84%   Direction: NA
Pressure: 30"   Gusts: NA
Location:  35.9775°N, 106.158°W
Report Text: KLAM 211455Z AUTO 00000KT 10SM CLR M02/M04 A3000 RMK AO2 T10211045
Loading
Personal Weather Stations






























Interactive Weather Map New forecast layout! Learn more

10-Day Weather Forecast

Advertisements
Track Severe Weather on mobile